Terminal Aerodrome Forecast
Issued by NWS Binghamton, NY

Home | Current Version | Previous Version | Text Only | Print | Product List | Glossary On
Versions: 1 2 3 4 5 6 7 8 9 10 11 12 13 14 15 16 17 18 19
000
FTUS41 KBGM 312335
TAFBGM
TAF
KBGM 312335Z 0100/0124 31004KT P6SM SKC
     FM010900 VRB03KT 5SM BR SKC
      TEMPO 0110/0112 2SM BR
     FM011300 28003KT P6SM SCT050=

USA.gov is the U.S. government's official web portal to all federal, state and local government web resources and services.